Time;durP1;ratioP1;P1;durP2;ratioP2;P2;SDS_P1;SDS_P2;PMS_P1;PMS_P2;Temp;Humidity;BMP_temperature;BMP_pressure;BME280_temperature;BME280_humidity;BME280_pressure;Samples;Min_cycle;Max_cycle;Signal;HPM_P1;HPM_P2
2023/04/02 00:02:29;;;;;;;;;;;;;;;11.75;79.70;99427.94;10111341;29;20058;-63
2023/04/02 00:07:32;;;;;;;3.40;1.77;;;;;;;11.69;79.48;99424.22;10107972;29;19929;-63
2023/04/02 00:12:33;;;;;;;1.80;1.17;;;;;;;11.65;79.71;99439.13;10095436;29;20077;-65
2023/04/02 00:17:35;;;;;;;2.33;1.25;;;;;;;11.69;79.39;99444.94;10113216;29;20218;-63
2023/04/02 00:22:43;;;;;;;1.65;1.00;;;;;;;11.76;79.58;99458.38;10101559;29;20813;-69
2023/04/02 00:27:45;;;;;;;1.38;0.95;;;;;;;11.73;79.57;99467.72;10058987;29;20049;-68
2023/04/02 00:32:46;;;;;;;2.10;0.70;;;;;;;11.62;79.44;99473.69;10059712;29;20143;-68
2023/04/02 00:37:49;;;;;;;1.38;0.90;;;;;;;11.67;79.66;99481.97;10059213;29;20052;-69
2023/04/02 00:42:53;;;;;;;1.15;0.85;;;;;;;11.60;79.83;99478.44;10060110;29;20105;-67
2023/04/02 00:47:57;;;;;;;1.98;0.80;;;;;;;11.68;79.62;99480.94;10059840;29;20049;-67
2023/04/02 00:53:07;;;;;;;1.33;0.90;;;;;;;11.68;79.40;99486.34;10059844;29;20049;-67
2023/04/02 00:58:35;;;;;;;4.88;0.85;;;;;;;11.70;79.03;99484.25;10060727;29;20056;-67
2023/04/02 01:03:37;;;;;;;1.48;0.90;;;;;;;11.68;79.35;99492.53;10040327;29;20386;-67
2023/04/02 01:09:02;;;;;;;3.58;1.27;;;;;;;11.78;79.09;99494.00;10060500;29;20038;-68
2023/04/02 01:14:16;;;;;;;2.20;1.25;;;;;;;11.89;78.52;99498.84;10056327;29;20101;-68
2023/04/02 01:19:36;;;;;;;1.45;0.80;;;;;;;11.97;78.63;99505.88;10060064;29;20037;-68
2023/04/02 01:24:38;;;;;;;3.20;1.48;;;;;;;11.98;78.12;99504.84;10084832;29;20203;-68
2023/04/02 01:29:45;;;;;;;2.63;1.23;;;;;;;11.90;78.44;99508.56;10105161;29;20076;-68
2023/04/02 01:34:49;;;;;;;2.13;1.25;;;;;;;11.86;78.78;99518.88;10107713;29;20120;-68
2023/04/02 01:40:02;;;;;;;2.63;1.40;;;;;;;11.77;78.84;99519.25;10110624;29;20112;-68
2023/04/02 01:45:08;;;;;;;3.30;1.17;;;;;;;11.65;79.25;99527.09;10104684;29;20060;-68
2023/04/02 01:50:19;;;;;;;2.10;1.15;;;;;;;11.75;78.60;99535.66;10106119;29;20088;-68
2023/04/02 01:55:30;;;;;;;3.17;1.10;;;;;;;11.77;78.86;99544.34;10105555;29;20117;-68
2023/04/02 02:00:35;;;;;;;5.38;1.20;;;;;;;11.78;78.42;99555.94;10110498;29;20065;-68
2023/04/02 02:05:36;;;;;;;2.95;1.20;;;;;;;11.88;78.17;99553.69;10108402;29;20147;-68
2023/04/02 02:10:38;;;;;;;2.60;1.13;;;;;;;11.91;78.38;99566.78;10103934;29;20072;-68
2023/04/02 02:15:39;;;;;;;2.00;1.10;;;;;;;11.82;78.71;99559.88;10106892;29;20116;-68
2023/04/02 02:20:41;;;;;;;1.83;1.05;;;;;;;11.90;78.40;99565.94;10102235;29;20084;-68
2023/04/02 02:25:45;;;;;;;3.30;1.33;;;;;;;11.98;77.97;99578.38;10108058;29;20052;-68
2023/04/02 02:30:51;;;;;;;2.00;1.30;;;;;;;11.93;77.51;99585.41;10103880;29;20049;-67
2023/04/02 02:35:59;;;;;;;3.27;1.50;;;;;;;11.99;78.01;99581.94;10107161;29;20061;-67
2023/04/02 02:41:07;;;;;;;7.20;1.55;;;;;;;12.05;77.72;99594.56;10106003;29;20444;-69
2023/04/02 02:46:15;;;;;;;3.45;1.25;;;;;;;12.09;77.39;99601.22;10103800;29;20068;-68
2023/04/02 02:51:25;;;;;;;2.60;1.65;;;;;;;12.12;77.58;99598.09;10102790;29;20048;-69
2023/04/02 02:56:29;;;;;;;3.05;1.73;;;;;;;12.17;77.53;99605.56;10099868;29;20148;-69
2023/04/02 03:01:31;;;;;;;3.28;1.30;;;;;;;12.19;77.35;99616.97;10104788;29;20133;-68
2023/04/02 03:06:32;;;;;;;2.65;1.52;;;;;;;12.20;77.49;99624.84;10099645;29;20053;-69
2023/04/02 03:11:53;;;;;;;3.95;2.25;;;;;;;12.15;77.15;99629.19;10087103;29;20052;-69
2023/04/02 03:17:07;;;;;;;6.97;2.42;;;;;;;12.18;77.13;99643.06;10106427;29;20080;-69
2023/04/02 03:22:26;;;;;;;5.97;2.38;;;;;;;12.15;77.80;99646.19;10101952;29;20052;-69
2023/04/02 03:27:39;;;;;;;5.88;2.55;;;;;;;12.19;77.71;99654.69;10104215;29;20446;-68
2023/04/02 03:32:43;;;;;;;5.47;3.08;;;;;;;12.18;77.38;99667.31;10103063;29;20052;-69
2023/04/02 03:37:54;;;;;;;9.40;3.72;;;;;;;12.20;77.15;99669.81;10104836;29;20072;-68
2023/04/02 03:43:05;;;;;;;6.72;3.78;;;;;;;12.13;77.35;99677.91;10102618;29;20045;-68
2023/04/02 03:48:17;;;;;;;9.13;4.72;;;;;;;12.09;77.50;99682.03;10101719;29;20096;-69
2023/04/02 03:53:22;;;;;;;6.90;4.07;;;;;;;12.13;77.55;99687.84;10104140;29;20485;-69
2023/04/02 03:58:37;;;;;;;5.47;3.85;;;;;;;12.12;77.70;99702.34;10103363;29;20566;-69
2023/04/02 04:03:54;;;;;;;7.45;4.28;;;;;;;12.07;78.37;99701.09;10101624;29;20428;-69
2023/04/02 04:09:28;;;;;;;9.80;4.87;;;;;;;11.97;78.60;99713.28;10104748;29;20076;-68
2023/04/02 04:14:36;;;;;;;10.45;4.82;;;;;;;11.92;78.31;99716.56;10089776;29;20076;-68
2023/04/02 04:19:45;;;;;;;7.13;4.82;;;;;;;11.86;78.81;99726.22;10103086;29;20045;-68
2023/04/02 04:24:47;;;;;;;11.50;4.88;;;;;;;11.85;79.11;99726.44;10101290;29;20053;-68
2023/04/02 04:30:02;;;;;;;9.68;5.15;;;;;;;11.91;78.92;99741.84;10098827;29;20073;-67
2023/04/02 04:35:21;;;;;;;8.93;5.35;;;;;;;11.97;78.82;99742.91;10100721;29;20401;-67
2023/04/02 04:40:26;;;;;;;10.93;5.05;;;;;;;11.93;79.14;99752.38;10100191;29;20068;-67
2023/04/02 04:45:33;;;;;;;10.75;6.53;;;;;;;11.93;79.07;99761.31;10101319;29;20036;-67
2023/04/02 04:51:00;;;;;;;11.50;6.20;;;;;;;11.87;78.99;99772.88;10102663;29;20486;-67
2023/04/02 04:56:03;;;;;;;8.52;5.15;;;;;;;11.89;78.53;99782.44;10098439;29;20053;-67
2023/04/02 05:01:41;;;;;;;;;;;;;;;11.86;79.28;99790.88;10101910;29;20722;-67
2023/04/02 05:07:03;;;;;;;8.88;5.15;;;;;;;11.87;79.06;99806.00;10110092;29;19928;-68
2023/04/02 05:12:42;;;;;;;12.45;5.95;;;;;;;11.82;78.99;99811.13;10112291;29;20069;-67
2023/04/02 05:18:14;;;;;;;8.38;3.95;;;;;;;11.84;78.97;99811.78;10114677;29;20108;-65
2023/04/02 05:23:28;;;;;;;4.55;2.20;;;;;;;11.83;79.09;99820.06;10107680;29;20052;-62
2023/04/02 05:29:00;;;;;;;3.67;1.50;;;;;;;11.81;79.18;99830.19;10102509;29;20592;-61
2023/04/02 05:34:02;;;;;;;3.55;2.30;;;;;;;11.82;78.62;99843.47;10102644;29;20061;-62
2023/04/02 05:39:07;;;;;;;5.15;1.30;;;;;;;11.87;78.55;99848.28;10106012;29;20053;-64
2023/04/02 05:44:18;;;;;;;2.10;1.30;;;;;;;11.80;79.01;99855.47;10105242;29;20080;-66
2023/04/02 05:49:40;;;;;;;3.30;1.60;;;;;;;11.84;78.80;99865.63;10098434;29;20041;-67
2023/04/02 05:54:57;;;;;;;4.25;2.60;;;;;;;11.82;79.35;99874.94;10097431;29;20060;-66
2023/04/02 06:00:06;;;;;;;2.73;0.70;;;;;;;11.54;79.78;99904.56;10104072;29;20104;-67
2023/04/02 06:05:16;;;;;;;0.40;0.20;;;;;;;10.79;80.56;99912.03;10100168;29;20611;-67
2023/04/02 06:10:22;;;;;;;2.08;0.10;;;;;;;10.42;80.74;99920.03;10106228;29;20052;-67
2023/04/02 06:15:25;;;;;;;0.95;0.10;;;;;;;10.13;80.94;99931.59;10106113;29;20431;-68
2023/04/02 06:20:27;;;;;;;1.75;0.10;;;;;;;9.80;81.53;99950.66;10111569;29;20108;-68
2023/04/02 06:25:46;;;;;;;0.10;0.10;;;;;;;9.59;81.59;99953.19;10109702;29;20091;-67
2023/04/02 06:30:50;;;;;;;0.20;0.10;;;;;;;9.39;81.67;99969.75;10107352;29;20084;-68
2023/04/02 06:35:53;;;;;;;0.20;0.10;;;;;;;9.23;81.65;99991.31;10109281;29;20049;-68
2023/04/02 06:41:03;;;;;;;0.47;0.13;;;;;;;9.11;81.54;100001.59;10107943;29;20064;-68
2023/04/02 06:46:15;;;;;;;0.20;0.10;;;;;;;9.05;81.49;100016.53;10112263;29;20069;-68
2023/04/02 06:51:21;;;;;;;0.50;0.13;;;;;;;8.99;81.35;100027.97;10112004;29;20044;-69
2023/04/02 06:56:27;;;;;;;0.40;0.20;;;;;;;9.02;81.34;100046.38;10123253;29;20564;-68
2023/04/02 07:01:32;;;;;;;1.00;0.10;;;;;;;8.99;81.43;100060.13;10131190;29;20053;-68
2023/04/02 07:06:34;;;;;;;0.35;0.10;;;;;;;8.92;81.68;100075.22;10126893;29;20055;-70
2023/04/02 07:11:35;;;;;;;0.20;0.15;;;;;;;8.93;81.83;100085.78;10149129;29;20053;-69
2023/04/02 07:16:37;;;;;;;0.20;0.10;;;;;;;8.90;81.34;100099.50;10145016;29;20049;-68
2023/04/02 07:21:38;;;;;;;0.20;0.15;;;;;;;8.81;81.51;100105.91;10148050;29;20041;-69
2023/04/02 07:26:41;;;;;;;0.20;0.10;;;;;;;8.79;81.34;100118.66;10152118;29;20044;-68
2023/04/02 07:31:42;;;;;;;0.32;0.32;;;;;;;8.82;81.33;100138.91;10155720;29;20069;-68
2023/04/02 07:36:44;;;;;;;0.20;0.03;;;;;;;8.88;80.86;100149.78;10157287;29;20044;-69
2023/04/02 07:41:57;;;;;;;1.42;0.10;;;;;;;8.88;80.79;100157.00;10148059;29;20073;-68
2023/04/02 07:46:58;;;;;;;0.30;0.15;;;;;;;8.84;81.28;100169.88;10153225;29;20052;-69
2023/04/02 07:51:59;;;;;;;0.20;0.10;;;;;;;8.72;80.82;100182.78;10149666;29;20081;-69
2023/04/02 07:57:01;;;;;;;0.10;0.10;;;;;;;8.81;80.96;100193.53;10149439;29;20393;-69
2023/04/02 08:02:03;;;;;;;0.10;0.10;;;;;;;8.82;80.69;100209.41;10151227;29;20052;-69
2023/04/02 08:07:04;;;;;;;0.15;0.15;;;;;;;8.79;80.79;100214.28;10146777;29;20044;-69
2023/04/02 08:12:06;;;;;;;0.30;0.20;;;;;;;8.77;80.28;100237.72;10144361;29;20052;-69
2023/04/02 08:17:08;;;;;;;0.32;0.20;;;;;;;8.63;80.85;100237.41;10133603;29;20045;-69
2023/04/02 08:22:10;;;;;;;0.82;0.30;;;;;;;8.60;80.09;100243.09;10107051;29;20143;-68
2023/04/02 08:27:15;;;;;;;0.40;0.20;;;;;;;8.56;80.35;100257.81;10123459;29;20059;-67
2023/04/02 08:32:16;;;;;;;0.95;0.20;;;;;;;8.67;80.53;100264.72;10120934;29;20336;-60
2023/04/02 08:37:18;;;;;;;0.40;0.20;;;;;;;8.70;80.61;100273.25;10117256;29;20053;-60
2023/04/02 08:42:30;;;;;;;0.40;0.30;;;;;;;8.78;80.72;100295.69;10112026;29;20156;-60
2023/04/02 08:47:38;;;;;;;0.50;0.20;;;;;;;8.93;80.10;100299.41;10116801;29;20100;-60
2023/04/02 08:52:40;;;;;;;0.28;0.20;;;;;;;8.95;79.96;100324.19;10119257;29;20714;-60
2023/04/02 08:58:23;;;;;;;1.55;0.20;;;;;;;8.83;79.91;100331.72;10138973;29;20050;-67
2023/04/02 09:03:44;;;;;;;0.45;0.22;;;;;;;8.87;79.88;100337.59;10149967;29;20104;-66
2023/04/02 09:08:49;;;;;;;0.70;0.30;;;;;;;8.84;79.75;100359.38;10153069;29;20032;-67
2023/04/02 09:13:57;;;;;;;0.60;0.30;;;;;;;8.89;79.74;100365.91;10142631;29;20048;-68
2023/04/02 09:19:00;;;;;;;0.40;0.30;;;;;;;9.08;79.39;100370.16;10126364;29;20088;-69
2023/04/02 09:24:03;;;;;;;0.65;0.50;;;;;;;9.33;79.20;100383.56;10144125;29;20069;-69
2023/04/02 09:29:11;;;;;;;0.47;0.30;;;;;;;9.39;79.15;100382.06;10145538;29;20045;-67
2023/04/02 09:34:28;;;;;;;0.47;0.35;;;;;;;9.43;78.67;100403.00;10138141;29;20056;-69
2023/04/02 09:39:30;;;;;;;0.37;0.27;;;;;;;9.44;78.43;100418.13;10141642;29;20044;-69
2023/04/02 09:44:31;;;;;;;0.60;0.20;;;;;;;9.35;78.13;100424.47;10136164;29;20053;-69
2023/04/02 09:49:35;;;;;;;0.55;0.30;;;;;;;9.37;77.74;100424.31;10144827;29;20064;-68
2023/04/02 09:54:40;;;;;;;0.82;0.40;;;;;;;9.37;77.88;100448.44;10142696;29;20045;-68
2023/04/02 09:59:42;;;;;;;1.35;0.65;;;;;;;9.50;77.54;100443.44;10137507;29;20101;-68
2023/04/02 10:04:46;;;;;;;0.77;0.30;;;;;;;9.58;76.89;100456.00;10123968;29;20060;-69
2023/04/02 10:09:57;;;;;;;1.23;0.40;;;;;;;9.73;76.75;100455.19;10118353;29;20033;-67
2023/04/02 10:15:02;;;;;;;0.35;0.30;;;;;;;9.77;76.50;100462.91;10100572;29;20501;-69
2023/04/02 10:20:23;;;;;;;0.50;0.38;;;;;;;9.86;76.07;100476.16;10119651;29;20052;-69
2023/04/02 10:25:29;;;;;;;0.20;0.20;;;;;;;10.03;75.95;100476.13;10113855;29;20052;-69
2023/04/02 10:31:02;;;;;;;1.20;0.28;;;;;;;10.31;75.26;100490.09;10109164;29;20049;-69
2023/04/02 10:36:32;;;;;;;0.40;0.30;;;;;;;10.40;75.05;100505.16;10109405;29;20057;-69
2023/04/02 10:41:48;;;;;;;0.30;0.25;;;;;;;10.25;74.66;100512.22;10115106;29;20053;-68
2023/04/02 10:47:07;;;;;;;0.38;0.20;;;;;;;10.10;74.70;100517.44;10108507;29;20049;-69
2023/04/02 10:52:18;;;;;;;0.80;0.30;;;;;;;10.00;74.38;100539.09;10110743;29;20041;-68
2023/04/02 10:57:39;;;;;;;0.50;0.40;;;;;;;9.89;74.21;100545.63;10102831;29;20100;-69
2023/04/02 11:03:06;;;;;;;0.45;0.30;;;;;;;9.86;74.17;100550.50;10112689;29;20056;-70
2023/04/02 11:08:39;;;;;;;0.95;0.50;;;;;;;9.73;74.15;100564.38;10110839;29;20496;-69
2023/04/02 11:13:57;;;;;;;2.03;0.60;;;;;;;9.76;74.28;100571.28;10097586;29;20322;-69
2023/04/02 11:19:23;;;;;;;0.73;0.57;;;;;;;9.75;74.13;100585.72;10115621;29;20049;-68
2023/04/02 11:24:31;;;;;;;1.70;0.60;;;;;;;9.74;74.24;100584.88;10109327;29;20045;-69
2023/04/02 11:29:55;;;;;;;1.52;0.70;;;;;;;9.62;73.93;100595.09;10122229;29;20055;-69
2023/04/02 11:35:00;;;;;;;1.02;0.80;;;;;;;9.65;73.96;100596.59;10123455;29;20052;-69
2023/04/02 11:40:10;;;;;;;0.75;0.57;;;;;;;9.50;73.35;100605.28;10119123;29;20045;-69
2023/04/02 11:45:26;;;;;;;1.33;0.60;;;;;;;9.56;73.64;100614.53;10111333;29;20041;-69
2023/04/02 11:50:39;;;;;;;0.80;0.60;;;;;;;9.74;73.44;100627.81;10113992;29;20056;-69
2023/04/02 11:55:46;;;;;;;1.23;0.60;;;;;;;9.67;73.88;100627.63;10088652;29;20052;-69
2023/04/02 12:00:53;;;;;;;1.05;0.73;;;;;;;9.79;73.99;100649.63;10090894;29;20133;-68
2023/04/02 12:06:07;;;;;;;2.20;0.90;;;;;;;10.00;73.44;100659.94;10101581;29;20072;-68
2023/04/02 12:11:08;;;;;;;1.23;0.80;;;;;;;9.96;73.39;100666.66;10103296;29;20068;-68
2023/04/02 12:16:11;;;;;;;1.15;0.70;;;;;;;10.12;72.90;100661.28;10117578;29;20044;-68
2023/04/02 12:21:15;;;;;;;2.30;0.80;;;;;;;10.09;72.35;100669.69;10101647;29;20061;-66
2023/04/02 12:26:29;;;;;;;1.77;0.90;;;;;;;10.02;71.71;100684.78;10097991;29;20084;-68
2023/04/02 12:31:32;;;;;;;1.55;0.80;;;;;;;10.03;72.11;100677.56;10100982;29;20036;-68
2023/04/02 12:36:34;;;;;;;1.42;0.88;;;;;;;10.02;71.86;100690.16;10107772;29;20497;-68
2023/04/02 12:41:36;;;;;;;1.30;0.80;;;;;;;9.98;72.22;100696.03;10102414;29;20493;-68
2023/04/02 12:46:39;;;;;;;1.60;0.80;;;;;;;10.09;71.59;100709.13;10107616;29;20093;-66
2023/04/02 12:51:41;;;;;;;1.58;0.80;;;;;;;10.01;71.79;100718.03;10108715;29;20105;-67
2023/04/02 12:56:43;;;;;;;7.03;1.02;;;;;;;10.12;71.10;100724.94;10103692;29;20421;-66
2023/04/02 13:01:56;;;;;;;2.08;1.08;;;;;;;10.13;71.06;100730.16;10102007;29;20120;-66
2023/04/02 13:06:58;;;;;;;1.45;1.08;;;;;;;9.94;71.23;100738.47;10103200;29;20053;-66
2023/04/02 13:12:00;;;;;;;1.83;1.20;;;;;;;10.00;70.81;100745.03;10103413;29;20153;-66
2023/04/02 13:17:01;;;;;;;3.60;1.60;;;;;;;9.95;70.76;100752.72;10110602;29;20072;-66
2023/04/02 13:22:22;;;;;;;1.63;0.93;;;;;;;9.78;70.80;100767.94;10110072;29;20757;-67
2023/04/02 13:27:24;;;;;;;3.63;1.27;;;;;;;9.73;70.61;100774.66;10111278;29;20473;-67
2023/04/02 13:32:26;;;;;;;3.15;2.13;;;;;;;9.78;70.70;100774.16;10107772;29;20040;-66
2023/04/02 13:37:27;;;;;;;3.90;2.28;;;;;;;9.73;70.46;100790.75;10110317;29;20049;-65
2023/04/02 13:42:29;;;;;;;4.30;2.47;;;;;;;9.62;70.57;100780.28;10104909;29;20056;-66
2023/04/02 13:47:31;;;;;;;5.40;2.00;;;;;;;9.56;70.32;100791.66;10109656;29;20088;-65
2023/04/02 13:52:32;;;;;;;2.85;1.77;;;;;;;9.57;70.04;100787.13;10105058;29;20060;-67
2023/04/02 13:57:34;;;;;;;4.05;1.90;;;;;;;9.33;70.49;100802.88;10103315;29;20068;-69
2023/04/02 14:02:42;;;;;;;4.38;2.10;;;;;;;9.20;69.72;100809.66;10119223;29;20091;-68
2023/04/02 14:07:50;;;;;;;6.07;2.50;;;;;;;9.11;69.82;100819.50;10119531;29;20067;-69
2023/04/02 14:13:14;;;;;;;2.55;1.73;;;;;;;9.09;69.43;100837.59;10120963;29;20457;-68
2023/04/02 14:18:28;;;;;;;3.40;1.80;;;;;;;9.15;69.33;100844.16;10117933;29;20089;-68
2023/04/02 14:23:52;;;;;;;3.85;1.48;;;;;;;9.12;69.05;100847.97;10117754;29;20108;-67
2023/04/02 14:29:09;;;;;;;2.97;0.98;;;;;;;9.16;69.18;100853.88;10118235;29;20045;-68
2023/04/02 14:34:55;;;;;;;2.07;1.10;;;;;;;9.26;69.31;100868.06;10121628;29;20049;-67
2023/04/02 14:40:21;;;;;;;1.70;1.20;;;;;;;9.27;69.30;100872.44;10113767;29;20057;-67
2023/04/02 14:45:32;;;;;;;2.78;1.40;;;;;;;9.11;69.15;100878.50;10094573;29;20097;-69
2023/04/02 14:50:39;;;;;;;2.17;1.30;;;;;;;9.02;69.32;100893.66;10106767;29;20528;-68
2023/04/02 14:55:47;;;;;;;1.77;0.90;;;;;;;8.89;69.24;100902.06;10105651;29;20049;-67
2023/04/02 15:01:03;;;;;;;2.03;0.77;;;;;;;8.74;68.96;100899.06;10115649;29;20044;-68
2023/04/02 15:06:10;;;;;;;1.63;0.77;;;;;;;8.59;68.47;100913.97;10110460;29;20108;-68
2023/04/02 15:11:15;;;;;;;;;;;;;;;8.51;69.40;100914.72;10092863;29;20135;-69
2023/04/02 15:16:20;;;;;;;4.75;1.30;;;;;;;8.56;68.51;100911.59;10105160;29;19971;-70
2023/04/02 15:21:32;;;;;;;3.78;1.13;;;;;;;8.57;68.61;100925.81;10103777;29;20060;-69
2023/04/02 15:26:39;;;;;;;3.53;0.88;;;;;;;8.60;68.31;100925.53;10105861;29;20148;-70
2023/04/02 15:31:44;;;;;;;3.95;2.15;;;;;;;8.61;67.86;100933.44;10099818;29;20048;-69
2023/04/02 15:37:04;;;;;;;1.88;0.80;;;;;;;8.63;67.97;100933.25;10101207;29;20063;-69
2023/04/02 15:42:22;;;;;;;1.75;1.02;;;;;;;8.63;67.94;100946.66;10101431;29;20091;-70
2023/04/02 15:47:40;;;;;;;4.13;1.10;;;;;;;8.59;67.53;100959.53;10077960;29;20116;-70
2023/04/02 15:53:00;;;;;;;3.38;1.20;;;;;;;8.54;67.20;100965.31;10102665;29;20052;-68
2023/04/02 15:58:51;;;;;;;2.03;1.42;;;;;;;8.44;67.36;100969.03;10103070;29;20120;-70
2023/04/02 16:04:23;;;;;;;3.40;1.58;;;;;;;8.41;67.07;100972.88;10105022;29;20533;-70
2023/04/02 16:09:29;;;;;;;1.73;1.10;;;;;;;8.32;66.60;100984.41;10103842;29;20903;-69
2023/04/02 16:14:32;;;;;;;3.28;2.22;;;;;;;8.26;66.20;100995.72;10102717;29;20056;-70
2023/04/02 16:20:12;;;;;;;4.32;1.17;;;;;;;8.25;66.10;101000.19;10088461;29;20052;-71
2023/04/02 16:25:21;;;;;;;1.90;1.40;;;;;;;8.31;65.26;101012.16;10097100;29;20076;-69
2023/04/02 16:30:53;;;;;;;1.88;1.45;;;;;;;8.33;65.53;101012.88;10101653;29;20045;-71
2023/04/02 16:36:22;;;;;;;2.03;1.50;;;;;;;8.36;64.53;101027.84;10103656;29;20448;-70
2023/04/02 16:41:33;;;;;;;2.88;1.17;;;;;;;8.34;65.01;101031.47;10100013;29;20508;-70
2023/04/02 16:46:50;;;;;;;2.80;1.50;;;;;;;8.30;65.24;101043.47;10098085;29;20083;-70
2023/04/02 16:52:07;;;;;;;3.30;1.67;;;;;;;8.36;64.38;101047.41;10103864;29;20052;-70
2023/04/02 16:57:23;;;;;;;3.10;1.30;;;;;;;8.32;64.56;101054.06;10095329;29;20060;-69
2023/04/02 17:02:40;;;;;;;2.35;1.85;;;;;;;8.42;63.84;101060.25;10097422;29;20144;-70
2023/04/02 17:07:48;;;;;;;;;;;;;;;8.48;65.37;101074.91;10070727;29;20053;-68
2023/04/02 17:13:18;;;;;;;2.17;1.83;;;;;;;8.54;64.28;101091.25;10105699;29;19923;-70
2023/04/02 17:18:23;;;;;;;2.10;1.50;;;;;;;8.57;64.11;101095.50;10110254;29;20056;-71
2023/04/02 17:23:27;;;;;;;4.22;1.90;;;;;;;8.61;64.48;101104.06;10099035;29;20064;-71
2023/04/02 17:28:35;;;;;;;3.15;2.08;;;;;;;8.59;64.36;101116.78;10099055;29;20053;-71
2023/04/02 17:33:37;;;;;;;3.10;2.50;;;;;;;8.61;64.46;101122.84;10099178;29;20060;-70
2023/04/02 17:38:49;;;;;;;5.95;1.98;;;;;;;8.56;63.95;101136.66;10098038;29;20159;-70
2023/04/02 17:44:30;;;;;;;2.47;1.42;;;;;;;8.37;64.35;101140.19;10083338;29;20061;-69
2023/04/02 17:49:45;;;;;;;3.20;1.27;;;;;;;8.30;63.76;101155.13;10086177;29;20053;-70
2023/04/02 17:55:30;;;;;;;2.75;1.50;;;;;;;8.30;64.00;101161.34;10098404;29;20049;-70
2023/04/02 18:00:59;;;;;;;2.65;1.42;;;;;;;8.33;64.04;101168.22;10099797;29;20112;-69
2023/04/02 18:06:11;;;;;;;3.40;1.35;;;;;;;8.29;64.01;101188.25;10085073;29;20142;-69
2023/04/02 18:11:21;;;;;;;4.28;1.27;;;;;;;8.30;63.29;101190.81;10106482;29;20108;-70
2023/04/02 18:16:54;;;;;;;3.05;0.90;;;;;;;8.37;63.40;101191.06;10104023;29;20084;-72
2023/04/02 18:22:26;;;;;;;2.85;1.23;;;;;;;8.35;63.76;101211.78;10093097;29;20069;-74
2023/04/02 18:27:41;;;;;;;1.95;1.42;;;;;;;8.31;63.67;101213.06;10116949;29;20057;-75
2023/04/02 18:33:04;;;;;;;3.60;1.98;;;;;;;8.37;63.32;101222.38;10114867;29;20061;-73
2023/04/02 18:38:15;;;;;;;2.38;1.58;;;;;;;8.31;63.75;101229.13;10100219;29;20076;-72
2023/04/02 18:43:41;;;;;;;2.45;1.40;;;;;;;8.37;63.57;101241.97;10088927;29;20497;-72
2023/04/02 18:48:55;;;;;;;5.93;2.15;;;;;;;8.34;63.68;101251.16;10095822;29;20104;-72
2023/04/02 18:54:18;;;;;;;5.32;1.50;;;;;;;8.37;63.52;101255.38;10110327;29;20056;-72
2023/04/02 18:59:37;;;;;;;2.63;1.20;;;;;;;8.30;63.86;101267.63;10107817;29;20056;-73
2023/04/02 19:04:42;;;;;;;1.73;1.13;;;;;;;8.34;63.79;101271.75;10109108;29;20052;-72
2023/04/02 19:09:47;;;;;;;1.92;1.08;;;;;;;8.33;64.21;101278.94;10096921;29;20091;-72
2023/04/02 19:14:52;;;;;;;3.25;1.50;;;;;;;8.27;64.11;101289.34;10110130;29;20056;-72
2023/04/02 19:20:22;;;;;;;2.33;0.85;;;;;;;8.21;63.94;101292.56;10105449;29;20053;-71
2023/04/02 19:25:38;;;;;;;0.60;0.47;;;;;;;8.14;63.95;101297.63;10114611;29;20453;-73
2023/04/02 19:31:03;;;;;;;1.65;0.60;;;;;;;8.17;63.36;101307.22;10113983;29;20041;-74
2023/04/02 19:36:31;;;;;;;2.60;0.88;;;;;;;8.14;62.92;101309.19;10090075;29;20516;-72
2023/04/02 19:41:47;;;;;;;0.88;0.50;;;;;;;8.13;63.05;101307.47;10088576;29;20080;-73
2023/04/02 19:46:50;;;;;;;3.72;0.85;;;;;;;8.04;63.45;101315.50;10108639;29;20123;-74
2023/04/02 19:51:52;;;;;;;1.98;0.57;;;;;;;7.98;63.16;101322.25;10108541;29;20485;-74
2023/04/02 19:56:54;;;;;;;2.10;0.80;;;;;;;7.95;62.48;101326.03;10106613;29;20465;-73
2023/04/02 20:01:57;;;;;;;1.55;0.80;;;;;;;7.82;63.18;101324.56;10103965;29;20057;-73
2023/04/02 20:06:59;;;;;;;4.00;0.70;;;;;;;7.61;62.90;101330.81;10109751;29;20053;-72
2023/04/02 20:12:02;;;;;;;2.13;1.23;;;;;;;7.49;63.25;101338.06;10110555;29;20048;-73
2023/04/02 20:17:03;;;;;;;1.67;0.80;;;;;;;7.37;63.77;101349.81;10096443;29;20057;-73
2023/04/02 20:22:05;;;;;;;4.47;0.95;;;;;;;7.32;63.89;101352.00;10109437;29;20048;-73
2023/04/02 20:27:07;;;;;;;1.75;0.98;;;;;;;7.27;63.64;101355.09;10105552;29;20072;-71
2023/04/02 20:32:09;;;;;;;4.68;1.33;;;;;;;7.25;63.35;101357.03;10110842;29;20048;-73
2023/04/02 20:37:11;;;;;;;1.30;0.90;;;;;;;7.20;63.95;101367.25;10106429;29;20074;-73
2023/04/02 20:42:13;;;;;;;1.55;0.77;;;;;;;7.14;64.16;101373.97;10104701;29;20089;-71
2023/04/02 20:47:15;;;;;;;2.63;0.80;;;;;;;7.19;64.09;101380.75;10103160;29;20697;-72
2023/04/02 20:52:16;;;;;;;2.00;0.90;;;;;;;7.18;64.04;101385.25;10108660;29;20069;-73
2023/04/02 20:57:20;;;;;;;1.30;0.68;;;;;;;7.17;63.79;101390.72;10105208;29;20128;-72
2023/04/02 21:02:22;;;;;;;1.40;0.82;;;;;;;7.18;64.23;101392.44;10084406;29;20668;-72
2023/04/02 21:07:23;;;;;;;3.25;0.80;;;;;;;7.23;64.32;101399.09;10107848;29;20064;-71
2023/04/02 21:12:24;;;;;;;4.15;0.93;;;;;;;7.25;64.11;101402.50;10105003;29;20041;-73
2023/04/02 21:17:26;;;;;;;2.03;0.80;;;;;;;7.28;63.67;101402.22;10098826;29;20064;-72
2023/04/02 21:22:28;;;;;;;2.55;1.17;;;;;;;7.37;63.78;101405.13;10102597;29;20164;-72
2023/04/02 21:27:29;;;;;;;3.55;0.90;;;;;;;7.37;64.67;101405.97;10085415;29;20073;-71
2023/04/02 21:32:31;;;;;;;2.83;0.80;;;;;;;7.43;64.58;101401.94;10116593;29;20093;-76
2023/04/02 21:37:36;;;;;;;2.72;0.50;;;;;;;7.40;63.68;101411.06;10113385;29;20159;-71
2023/04/02 21:42:37;;;;;;;1.15;0.70;;;;;;;7.36;63.78;101406.94;10107186;29;20084;-72
2023/04/02 21:47:38;;;;;;;1.80;0.82;;;;;;;7.47;63.97;101406.06;10090010;29;20136;-73
2023/04/02 21:52:40;;;;;;;1.52;0.70;;;;;;;7.50;64.01;101413.81;10114511;29;20048;-73
2023/04/02 21:57:41;;;;;;;2.28;0.57;;;;;;;7.51;63.49;101419.03;10093783;29;20563;-73
2023/04/02 22:02:43;;;;;;;1.45;0.70;;;;;;;7.52;63.37;101419.88;10109562;29;20072;-73
2023/04/02 22:07:44;;;;;;;2.53;0.85;;;;;;;7.55;64.22;101423.13;10116135;29;20049;-73
2023/04/02 22:12:46;;;;;;;2.40;0.50;;;;;;;7.52;64.22;101409.16;10102002;29;20057;-74
2023/04/02 22:17:47;;;;;;;0.80;0.60;;;;;;;7.52;64.07;101418.06;10106980;29;20080;-72
2023/04/02 22:22:50;;;;;;;3.45;0.82;;;;;;;7.52;64.04;101414.53;10112157;29;20065;-72
2023/04/02 22:27:51;;;;;;;4.15;0.55;;;;;;;7.42;64.24;101422.47;10081637;29;20041;-71
2023/04/02 22:32:53;;;;;;;1.35;0.60;;;;;;;7.37;63.68;101414.00;10112998;29;20139;-73
2023/04/02 22:37:54;;;;;;;2.67;0.60;;;;;;;7.35;64.07;101418.63;10100452;29;20044;-73
2023/04/02 22:42:56;;;;;;;2.97;0.70;;;;;;;7.33;64.21;101417.91;10101129;29;20593;-72
2023/04/02 22:47:57;;;;;;;1.08;0.50;;;;;;;7.25;64.54;101421.22;10110699;29;20076;-72
2023/04/02 22:52:59;;;;;;;1.15;0.70;;;;;;;7.19;64.26;101421.75;10106022;29;20066;-72
2023/04/02 22:58:00;;;;;;;2.65;0.50;;;;;;;7.13;64.72;101423.09;10110239;29;20053;-72
2023/04/02 23:03:01;;;;;;;2.63;0.52;;;;;;;7.15;64.98;101423.81;10097634;29;20044;-72
2023/04/02 23:08:04;;;;;;;1.08;0.50;;;;;;;7.17;64.54;101426.38;10103952;29;20052;-72
2023/04/02 23:13:05;;;;;;;1.73;0.70;;;;;;;7.09;64.99;101418.09;10099389;29;20099;-73
2023/04/02 23:18:07;;;;;;;1.38;0.57;;;;;;;7.10;65.02;101419.81;10110207;29;20048;-71
2023/04/02 23:23:08;;;;;;;2.17;0.45;;;;;;;7.14;64.88;101423.94;10103621;29;20113;-72
2023/04/02 23:28:11;;;;;;;1.02;0.47;;;;;;;7.16;64.31;101424.66;10093936;29;20147;-72
2023/04/02 23:33:13;;;;;;;1.10;0.50;;;;;;;7.23;65.00;101425.84;10104436;29;20044;-72
2023/04/02 23:38:14;;;;;;;3.15;0.55;;;;;;;7.19;65.05;101432.44;10112636;29;20611;-72
2023/04/02 23:43:16;;;;;;;2.50;0.40;;;;;;;7.29;65.02;101425.34;10105636;29;20113;-73
2023/04/02 23:48:18;;;;;;;0.90;0.30;;;;;;;7.28;64.00;101414.75;10109299;29;20072;-73
2023/04/02 23:53:19;;;;;;;1.20;0.43;;;;;;;7.37;64.11;101413.16;10105039;29;20097;-73
2023/04/02 23:58:20;;;;;;;1.95;0.55;;;;;;;7.37;64.36;101415.84;10105925;29;20056;-73
